sensor_id;sensor_type;location;lat;lon;timestamp;pressure;altitude;pressure_sealevel;temperature;humidity
5522;BME280;2783;48.730;8.006;2023-04-27T00:01:39;100188.72;;;12.04;90.91
5522;BME280;2783;48.730;8.006;2023-04-27T00:04:05;100186.97;;;12.03;90.56
5522;BME280;2783;48.730;8.006;2023-04-27T00:06:31;100186.13;;;12.01;91.43
5522;BME280;2783;48.730;8.006;2023-04-27T00:08:56;100180.91;;;11.98;91.23
5522;BME280;2783;48.730;8.006;2023-04-27T00:11:22;100180.22;;;11.93;90.35
5522;BME280;2783;48.730;8.006;2023-04-27T00:13:47;100185.78;;;11.87;90.44
5522;BME280;2783;48.730;8.006;2023-04-27T00:16:12;100175.22;;;11.84;90.94
5522;BME280;2783;48.730;8.006;2023-04-27T00:18:38;100189.69;;;11.77;90.75
5522;BME280;2783;48.730;8.006;2023-04-27T00:21:03;100177.25;;;11.77;91.17
5522;BME280;2783;48.730;8.006;2023-04-27T00:23:28;100178.09;;;11.78;91.29
5522;BME280;2783;48.730;8.006;2023-04-27T00:25:53;100175.41;;;11.78;91.18
5522;BME280;2783;48.730;8.006;2023-04-27T00:28:19;100176.34;;;11.77;92.16
5522;BME280;2783;48.730;8.006;2023-04-27T00:30:44;100167.47;;;11.76;91.84
5522;BME280;2783;48.730;8.006;2023-04-27T00:33:09;100171.97;;;11.76;91.02
5522;BME280;2783;48.730;8.006;2023-04-27T00:35:35;100173.84;;;11.72;91.58
5522;BME280;2783;48.730;8.006;2023-04-27T00:38:00;100175.88;;;11.66;91.61
5522;BME280;2783;48.730;8.006;2023-04-27T00:40:25;100172.38;;;11.64;91.66
5522;BME280;2783;48.730;8.006;2023-04-27T00:42:51;100174.09;;;11.65;92.21
5522;BME280;2783;48.730;8.006;2023-04-27T00:45:16;100174.09;;;11.65;91.90
5522;BME280;2783;48.730;8.006;2023-04-27T00:47:41;100172.38;;;11.64;92.87
5522;BME280;2783;48.730;8.006;2023-04-27T00:50:07;100175.94;;;11.63;92.34
5522;BME280;2783;48.730;8.006;2023-04-27T00:52:35;100174.19;;;11.62;92.96
5522;BME280;2783;48.730;8.006;2023-04-27T00:55:01;100180.56;;;11.58;92.12
5522;BME280;2783;48.730;8.006;2023-04-27T00:57:26;100183.22;;;11.58;92.85
5522;BME280;2783;48.730;8.006;2023-04-27T00:59:52;100180.63;;;11.56;92.82
5522;BME280;2783;48.730;8.006;2023-04-27T01:02:17;100178.41;;;11.43;93.32
5522;BME280;2783;48.730;8.006;2023-04-27T01:04:42;100180.25;;;11.41;93.34
5522;BME280;2783;48.730;8.006;2023-04-27T01:07:08;100179.00;;;11.25;94.67
5522;BME280;2783;48.730;8.006;2023-04-27T01:09:33;100182.28;;;11.33;94.42
5522;BME280;2783;48.730;8.006;2023-04-27T01:11:58;100174.25;;;11.34;94.29
5522;BME280;2783;48.730;8.006;2023-04-27T01:14:24;100171.63;;;11.33;94.54
5522;BME280;2783;48.730;8.006;2023-04-27T01:16:50;100174.31;;;11.33;94.40
5522;BME280;2783;48.730;8.006;2023-04-27T01:19:15;100178.81;;;11.31;94.04
5522;BME280;2783;48.730;8.006;2023-04-27T01:21:41;100177.88;;;11.32;93.82
5522;BME280;2783;48.730;8.006;2023-04-27T01:24:06;100186.75;;;11.32;94.41
5522;BME280;2783;48.730;8.006;2023-04-27T01:26:32;100186.56;;;11.37;94.86
5522;BME280;2783;48.730;8.006;2023-04-27T01:28:57;100189.25;;;11.37;95.19
5522;BME280;2783;48.730;8.006;2023-04-27T01:31:23;100192.78;;;11.37;94.93
5522;BME280;2783;48.730;8.006;2023-04-27T01:33:48;100190.94;;;11.39;94.57
5522;BME280;2783;48.730;8.006;2023-04-27T01:36:13;100189.19;;;11.38;94.40
5522;BME280;2783;48.730;8.006;2023-04-27T01:38:38;100189.19;;;11.38;94.85
5522;BME280;2783;48.730;8.006;2023-04-27T01:41:04;100188.44;;;11.35;94.32
5522;BME280;2783;48.730;8.006;2023-04-27T01:43:30;100187.41;;;11.39;94.43
5522;BME280;2783;48.730;8.006;2023-04-27T01:45:56;100189.06;;;11.43;94.27
5522;BME280;2783;48.730;8.006;2023-04-27T01:48:28;100187.28;;;11.42;94.84
5522;BME280;2783;48.730;8.006;2023-04-27T01:50:53;100200.66;;;11.40;94.44
5522;BME280;2783;48.730;8.006;2023-04-27T01:53:19;100188.22;;;11.41;94.38
5522;BME280;2783;48.730;8.006;2023-04-27T01:55:44;100188.28;;;11.39;94.56
5522;BME280;2783;48.730;8.006;2023-04-27T01:58:09;100182.78;;;11.44;94.83
5522;BME280;2783;48.730;8.006;2023-04-27T02:00:35;100184.50;;;11.46;94.43
5522;BME280;2783;48.730;8.006;2023-04-27T02:03:00;100184.50;;;11.46;95.43
5522;BME280;2783;48.730;8.006;2023-04-27T02:05:25;100174.59;;;11.50;94.86
5522;BME280;2783;48.730;8.006;2023-04-27T02:07:50;100186.13;;;11.50;94.34
5522;BME280;2783;48.730;8.006;2023-04-27T02:10:16;100178.06;;;11.52;94.20
5522;BME280;2783;48.730;8.006;2023-04-27T02:12:41;100185.16;;;11.53;94.06
5522;BME280;2783;48.730;8.006;2023-04-27T02:15:06;100181.34;;;11.60;94.05
5522;BME280;2783;48.730;8.006;2023-04-27T02:17:35;100184.84;;;11.62;93.76
5522;BME280;2783;48.730;8.006;2023-04-27T02:20:00;100183.03;;;11.64;94.24
5522;BME280;2783;48.730;8.006;2023-04-27T02:22:26;100180.38;;;11.62;93.79
5522;BME280;2783;48.730;8.006;2023-04-27T02:24:51;100185.81;;;11.59;94.03
5522;BME280;2783;48.730;8.006;2023-04-27T02:27:16;100189.44;;;11.57;93.38
5522;BME280;2783;48.730;8.006;2023-04-27T02:29:41;100198.31;;;11.57;93.43
5522;BME280;2783;48.730;8.006;2023-04-27T02:32:07;100190.38;;;11.56;94.29
5522;BME280;2783;48.730;8.006;2023-04-27T02:34:32;100201.09;;;11.54;93.57
5522;BME280;2783;48.730;8.006;2023-04-27T02:36:57;100198.50;;;11.53;94.15
5522;BME280;2783;48.730;8.006;2023-04-27T02:39:23;100195.81;;;11.53;93.69
5522;BME280;2783;48.730;8.006;2023-04-27T02:41:48;100203.75;;;11.54;94.34
5522;BME280;2783;48.730;8.006;2023-04-27T02:44:13;100211.69;;;11.56;93.86
5522;BME280;2783;48.730;8.006;2023-04-27T02:46:38;100203.72;;;11.56;94.44
5522;BME280;2783;48.730;8.006;2023-04-27T02:49:04;100203.81;;;11.53;94.31
5522;BME280;2783;48.730;8.006;2023-04-27T02:51:29;100202.09;;;11.50;94.54
5522;BME280;2783;48.730;8.006;2023-04-27T02:53:54;100206.72;;;11.45;95.28
5522;BME280;2783;48.730;8.006;2023-04-27T02:56:20;100202.38;;;11.43;95.17
5522;BME280;2783;48.730;8.006;2023-04-27T02:58:45;100204.22;;;11.41;94.69
5522;BME280;2783;48.730;8.006;2023-04-27T03:01:11;100205.16;;;11.40;95.81
5522;BME280;2783;48.730;8.006;2023-04-27T03:03:37;100199.03;;;11.36;95.68
5522;BME280;2783;48.730;8.006;2023-04-27T03:06:02;100204.22;;;11.41;95.07
5522;BME280;2783;48.730;8.006;2023-04-27T03:08:27;100194.50;;;11.40;95.82
5522;BME280;2783;48.730;8.006;2023-04-27T03:10:53;100197.09;;;11.41;95.71
5522;BME280;2783;48.730;8.006;2023-04-27T03:13:18;100199.81;;;11.40;95.10
5522;BME280;2783;48.730;8.006;2023-04-27T03:15:43;100196.22;;;11.41;95.69
5522;BME280;2783;48.730;8.006;2023-04-27T03:18:08;100197.09;;;11.41;94.94
5522;BME280;2783;48.730;8.006;2023-04-27T03:20:34;100194.50;;;11.40;94.96
5522;BME280;2783;48.730;8.006;2023-04-27T03:22:59;100199.81;;;11.40;95.38
5522;BME280;2783;48.730;8.006;2023-04-27T03:25:25;100202.47;;;11.40;94.94
5522;BME280;2783;48.730;8.006;2023-04-27T03:27:50;100196.44;;;11.35;95.42
5522;BME280;2783;48.730;8.006;2023-04-27T03:30:16;100205.44;;;11.31;95.38
5522;BME280;2783;48.730;8.006;2023-04-27T03:32:41;100196.63;;;11.29;96.04
5522;BME280;2783;48.730;8.006;2023-04-27T03:35:07;100197.59;;;11.26;95.14
5522;BME280;2783;48.730;8.006;2023-04-27T03:37:33;100201.16;;;11.25;95.52
5522;BME280;2783;48.730;8.006;2023-04-27T03:39:58;100202.16;;;11.23;95.57
5522;BME280;2783;48.730;8.006;2023-04-27T03:42:23;100198.66;;;11.21;96.43
5522;BME280;2783;48.730;8.006;2023-04-27T03:44:48;100195.13;;;11.20;95.31
5522;BME280;2783;48.730;8.006;2023-04-27T03:47:14;100204.09;;;11.18;96.35
5522;BME280;2783;48.730;8.006;2023-04-27T03:49:39;100204.09;;;11.18;95.61
5522;BME280;2783;48.730;8.006;2023-04-27T03:52:04;100201.47;;;11.16;96.16
5522;BME280;2783;48.730;8.006;2023-04-27T03:54:30;100202.44;;;11.14;95.54
5522;BME280;2783;48.730;8.006;2023-04-27T03:56:55;100210.47;;;11.12;95.09
5522;BME280;2783;48.730;8.006;2023-04-27T03:59:20;100214.94;;;11.12;95.40
5522;BME280;2783;48.730;8.006;2023-04-27T04:01:45;100209.69;;;11.09;95.02
5522;BME280;2783;48.730;8.006;2023-04-27T04:04:11;100215.94;;;11.08;95.28
5522;BME280;2783;48.730;8.006;2023-04-27T04:06:36;100219.59;;;11.05;94.73
5522;BME280;2783;48.730;8.006;2023-04-27T04:09:01;100221.53;;;11.00;95.42
5522;BME280;2783;48.730;8.006;2023-04-27T04:11:28;100210.94;;;10.99;94.64
5522;BME280;2783;48.730;8.006;2023-04-27T04:13:53;100214.59;;;10.95;94.54
5522;BME280;2783;48.730;8.006;2023-04-27T04:16:18;100220.91;;;10.91;94.16
5522;BME280;2783;48.730;8.006;2023-04-27T04:18:44;100221.88;;;10.88;94.37
5522;BME280;2783;48.730;8.006;2023-04-27T04:21:09;100222.84;;;10.86;93.84
5522;BME280;2783;48.730;8.006;2023-04-27T04:23:35;100221.97;;;10.85;94.69
5522;BME280;2783;48.730;8.006;2023-04-27T04:26:01;100222.88;;;10.84;94.05
5522;BME280;2783;48.730;8.006;2023-04-27T04:28:26;100236.22;;;10.83;94.58
5522;BME280;2783;48.730;8.006;2023-04-27T04:30:52;100225.59;;;10.83;94.66
5522;BME280;2783;48.730;8.006;2023-04-27T04:33:17;100228.25;;;10.83;94.74
5522;BME280;2783;48.730;8.006;2023-04-27T04:35:42;100238.81;;;10.86;94.51
5522;BME280;2783;48.730;8.006;2023-04-27T04:38:10;100224.59;;;10.87;94.06
5522;BME280;2783;48.730;8.006;2023-04-27T04:40:39;100230.81;;;10.87;93.68
5522;BME280;2783;48.730;8.006;2023-04-27T04:43:05;100233.41;;;10.89;93.38
5522;BME280;2783;48.730;8.006;2023-04-27T04:45:30;100229.00;;;10.88;92.68
5522;BME280;2783;48.730;8.006;2023-04-27T04:47:56;100231.56;;;10.91;93.27
5522;BME280;2783;48.730;8.006;2023-04-27T04:50:21;100225.13;;;10.98;93.11
5522;BME280;2783;48.730;8.006;2023-04-27T04:52:47;100229.47;;;11.02;92.70
5522;BME280;2783;48.730;8.006;2023-04-27T04:55:12;100236.41;;;11.06;92.52
5522;BME280;2783;48.730;8.006;2023-04-27T04:57:38;100226.59;;;11.08;91.39
5522;BME280;2783;48.730;8.006;2023-04-27T05:00:03;100226.59;;;11.08;90.32
5522;BME280;2783;48.730;8.006;2023-04-27T05:02:30;100234.31;;;11.17;89.75
5522;BME280;2783;48.730;8.006;2023-04-27T05:04:55;100226.84;;;11.28;89.58
5522;BME280;2783;48.730;8.006;2023-04-27T05:07:21;100233.72;;;11.35;88.85
5522;BME280;2783;48.730;8.006;2023-04-27T05:09:46;100228.19;;;11.41;88.66
5522;BME280;2783;48.730;8.006;2023-04-27T05:12:11;100238.53;;;11.50;87.95
5522;BME280;2783;48.730;8.006;2023-04-27T05:14:37;100241.84;;;11.58;87.02
5522;BME280;2783;48.730;8.006;2023-04-27T05:17:02;100236.09;;;11.70;86.88
5522;BME280;2783;48.730;8.006;2023-04-27T05:19:28;100239.31;;;11.81;85.82
5522;BME280;2783;48.730;8.006;2023-04-27T05:21:53;100234.56;;;11.89;85.54
5522;BME280;2783;48.730;8.006;2023-04-27T05:24:18;100240.41;;;12.00;85.76
5522;BME280;2783;48.730;8.006;2023-04-27T05:26:44;100247.25;;;12.07;84.39
5522;BME280;2783;48.730;8.006;2023-04-27T05:29:09;100246.28;;;12.10;83.67
5522;BME280;2783;48.730;8.006;2023-04-27T05:31:35;100257.59;;;12.16;83.09
5522;BME280;2783;48.730;8.006;2023-04-27T05:34:00;100256.47;;;12.23;82.63
5522;BME280;2783;48.730;8.006;2023-04-27T05:36:25;100263.44;;;12.27;82.31
5522;BME280;2783;48.730;8.006;2023-04-27T05:38:52;100268.44;;;12.36;82.64
5522;BME280;2783;48.730;8.006;2023-04-27T05:41:17;100270.97;;;12.39;81.53
5522;BME280;2783;48.730;8.006;2023-04-27T05:43:43;100274.47;;;12.41;80.08
5522;BME280;2783;48.730;8.006;2023-04-27T05:46:11;100277.25;;;12.38;79.53
5522;BME280;2783;48.730;8.006;2023-04-27T05:48:37;100275.00;;;12.51;80.39
5522;BME280;2783;48.730;8.006;2023-04-27T05:51:02;100283.41;;;12.65;80.25
5522;BME280;2783;48.730;8.006;2023-04-27T05:53:31;100285.88;;;12.69;79.95
5522;BME280;2783;48.730;8.006;2023-04-27T05:55:56;100276.94;;;12.70;79.11
5522;BME280;2783;48.730;8.006;2023-04-27T05:58:23;100279.78;;;12.66;77.11
5522;BME280;2783;48.730;8.006;2023-04-27T06:00:48;100285.78;;;12.72;78.07
5522;BME280;2783;48.730;8.006;2023-04-27T06:03:14;100280.56;;;12.69;74.75
5522;BME280;2783;48.730;8.006;2023-04-27T06:05:39;100285.88;;;12.69;74.49
5522;BME280;2783;48.730;8.006;2023-04-27T06:08:05;100294.47;;;12.77;75.93
5522;BME280;2783;48.730;8.006;2023-04-27T06:10:30;100292.19;;;12.91;75.79
5522;BME280;2783;48.730;8.006;2023-04-27T06:12:56;100303.34;;;13.02;75.11
5522;BME280;2783;48.730;8.006;2023-04-27T06:15:21;100304.34;;;12.98;72.15
5522;BME280;2783;48.730;8.006;2023-04-27T06:17:46;100303.50;;;12.98;71.00
5522;BME280;2783;48.730;8.006;2023-04-27T06:20:12;100298.00;;;13.02;71.40
5522;BME280;2783;48.730;8.006;2023-04-27T06:22:37;100304.50;;;13.18;71.56
5522;BME280;2783;48.730;8.006;2023-04-27T06:25:03;100302.41;;;13.27;71.29
5522;BME280;2783;48.730;8.006;2023-04-27T06:27:29;100308.81;;;13.23;69.31
5522;BME280;2783;48.730;8.006;2023-04-27T06:29:54;100308.19;;;13.16;71.48
5522;BME280;2783;48.730;8.006;2023-04-27T06:32:19;100309.81;;;13.42;71.88
5522;BME280;2783;48.730;8.006;2023-04-27T06:34:45;100311.00;;;13.56;70.54
5522;BME280;2783;48.730;8.006;2023-04-27T06:37:10;100303.38;;;13.69;68.84
5522;BME280;2783;48.730;8.006;2023-04-27T06:39:36;100302.88;;;13.81;68.97
5522;BME280;2783;48.730;8.006;2023-04-27T06:42:01;100302.50;;;13.90;70.14
5522;BME280;2783;48.730;8.006;2023-04-27T06:44:28;100309.44;;;13.94;70.24
5522;BME280;2783;48.730;8.006;2023-04-27T06:46:53;100305.59;;;14.01;68.29
5522;BME280;2783;48.730;8.006;2023-04-27T06:49:18;100296.66;;;14.02;68.12
5522;BME280;2783;48.730;8.006;2023-04-27T06:51:44;100301.25;;;14.18;67.70
5522;BME280;2783;48.730;8.006;2023-04-27T06:54:10;100299.13;;;14.28;66.92
5522;BME280;2783;48.730;8.006;2023-04-27T06:56:36;100299.66;;;14.56;67.16
5522;BME280;2783;48.730;8.006;2023-04-27T06:59:01;100292.00;;;14.67;65.64
5522;BME280;2783;48.730;8.006;2023-04-27T07:01:26;100298.59;;;14.99;65.59
5522;BME280;2783;48.730;8.006;2023-04-27T07:03:51;100302.78;;;15.04;63.23
5522;BME280;2783;48.730;8.006;2023-04-27T07:06:17;100307.09;;;15.45;63.16
5522;BME280;2783;48.730;8.006;2023-04-27T07:08:42;100307.69;;;15.88;61.31
5522;BME280;2783;48.730;8.006;2023-04-27T07:11:07;100306.47;;;16.12;61.55
5522;BME280;2783;48.730;8.006;2023-04-27T07:13:33;100302.84;;;16.13;60.06
5522;BME280;2783;48.730;8.006;2023-04-27T07:15:58;100309.41;;;16.41;60.38
5522;BME280;2783;48.730;8.006;2023-04-27T07:18:24;100306.03;;;16.55;57.12
5522;BME280;2783;48.730;8.006;2023-04-27T07:20:52;100306.78;;;16.74;55.94
5522;BME280;2783;48.730;8.006;2023-04-27T07:23:17;100302.03;;;16.79;57.40
5522;BME280;2783;48.730;8.006;2023-04-27T07:25:42;100309.97;;;16.48;58.06
5522;BME280;2783;48.730;8.006;2023-04-27T07:28:09;100312.41;;;16.35;58.47
5522;BME280;2783;48.730;8.006;2023-04-27T07:30:34;100319.00;;;16.47;58.72
5522;BME280;2783;48.730;8.006;2023-04-27T07:33:01;100310.78;;;16.67;58.42
5522;BME280;2783;48.730;8.006;2023-04-27T07:35:26;100307.03;;;16.86;60.07
5522;BME280;2783;48.730;8.006;2023-04-27T07:37:51;100304.56;;;16.82;58.54
5522;BME280;2783;48.730;8.006;2023-04-27T07:40:17;100309.63;;;16.88;58.15
5522;BME280;2783;48.730;8.006;2023-04-27T07:42:42;100306.97;;;17.03;58.03
5522;BME280;2783;48.730;8.006;2023-04-27T07:45:08;100308.03;;;17.01;57.74
5522;BME280;2783;48.730;8.006;2023-04-27T07:47:33;100304.34;;;16.86;57.69
5522;BME280;2783;48.730;8.006;2023-04-27T07:49:59;100303.44;;;17.03;57.63
5522;BME280;2783;48.730;8.006;2023-04-27T07:52:24;100302.22;;;17.08;57.28
5522;BME280;2783;48.730;8.006;2023-04-27T07:54:49;100300.13;;;16.98;56.92
5522;BME280;2783;48.730;8.006;2023-04-27T07:57:15;100294.41;;;17.04;56.04
5522;BME280;2783;48.730;8.006;2023-04-27T07:59:40;100291.50;;;17.24;55.52
5522;BME280;2783;48.730;8.006;2023-04-27T08:02:06;100285.47;;;17.52;55.54
5522;BME280;2783;48.730;8.006;2023-04-27T08:04:31;100291.00;;;17.80;52.66
5522;BME280;2783;48.730;8.006;2023-04-27T08:06:56;100285.16;;;18.18;52.23
5522;BME280;2783;48.730;8.006;2023-04-27T08:09:21;100285.75;;;18.23;52.33
5522;BME280;2783;48.730;8.006;2023-04-27T08:11:47;100284.28;;;18.48;53.46
5522;BME280;2783;48.730;8.006;2023-04-27T08:14:12;100282.97;;;18.69;51.44
5522;BME280;2783;48.730;8.006;2023-04-27T08:16:41;100280.47;;;19.08;50.74
5522;BME280;2783;48.730;8.006;2023-04-27T08:19:06;100279.31;;;19.26;49.98
5522;BME280;2783;48.730;8.006;2023-04-27T08:21:33;100282.13;;;18.96;47.80
5522;BME280;2783;48.730;8.006;2023-04-27T08:23:58;100279.50;;;19.23;49.16
5522;BME280;2783;48.730;8.006;2023-04-27T08:26:23;100278.38;;;19.41;48.62
5522;BME280;2783;48.730;8.006;2023-04-27T08:28:49;100282.91;;;19.40;51.44
5522;BME280;2783;48.730;8.006;2023-04-27T08:31:14;100278.78;;;19.35;49.13
5522;BME280;2783;48.730;8.006;2023-04-27T08:33:40;100279.66;;;19.62;48.57
5522;BME280;2783;48.730;8.006;2023-04-27T08:36:06;100272.41;;;19.50;48.38
5522;BME280;2783;48.730;8.006;2023-04-27T08:38:32;100270.84;;;19.46;48.25
5522;BME280;2783;48.730;8.006;2023-04-27T08:40:57;100279.03;;;19.44;48.38
5522;BME280;2783;48.730;8.006;2023-04-27T08:43:23;100269.53;;;19.65;47.10
5522;BME280;2783;48.730;8.006;2023-04-27T08:45:48;100275.63;;;19.96;46.61
5522;BME280;2783;48.730;8.006;2023-04-27T08:48:17;100281.38;;;20.30;46.52
5522;BME280;2783;48.730;8.006;2023-04-27T08:50:45;100280.63;;;20.28;47.53
5522;BME280;2783;48.730;8.006;2023-04-27T08:53:17;100281.75;;;20.51;46.39
5522;BME280;2783;48.730;8.006;2023-04-27T08:55:43;100278.84;;;20.54;45.41
5522;BME280;2783;48.730;8.006;2023-04-27T08:58:08;100278.94;;;20.77;46.22
5522;BME280;2783;48.730;8.006;2023-04-27T09:00:40;100277.13;;;20.65;44.79
5522;BME280;2783;48.730;8.006;2023-04-27T09:03:06;100279.69;;;20.54;45.82
5522;BME280;2783;48.730;8.006;2023-04-27T09:05:32;100273.88;;;20.60;46.89
5522;BME280;2783;48.730;8.006;2023-04-27T09:08:01;100274.09;;;20.70;46.71
5522;BME280;2783;48.730;8.006;2023-04-27T09:10:29;100275.28;;;20.78;45.53
5522;BME280;2783;48.730;8.006;2023-04-27T09:12:55;100283.06;;;20.70;45.24
5522;BME280;2783;48.730;8.006;2023-04-27T09:15:21;100273.50;;;20.13;44.84
5522;BME280;2783;48.730;8.006;2023-04-27T09:17:51;100278.78;;;20.02;45.21
5522;BME280;2783;48.730;8.006;2023-04-27T09:20:17;100284.38;;;19.99;44.25
5522;BME280;2783;48.730;8.006;2023-04-27T09:25:08;100283.16;;;20.56;44.64
5522;BME280;2783;48.730;8.006;2023-04-27T09:27:33;100285.53;;;20.48;42.77
5522;BME280;2783;48.730;8.006;2023-04-27T09:29:58;100272.44;;;19.77;42.23
5522;BME280;2783;48.730;8.006;2023-04-27T09:32:24;100274.72;;;19.83;44.26
5522;BME280;2783;48.730;8.006;2023-04-27T09:34:49;100274.91;;;20.06;43.73
5522;BME280;2783;48.730;8.006;2023-04-27T09:37:15;100274.72;;;20.48;42.66
5522;BME280;2783;48.730;8.006;2023-04-27T09:39:40;100270.34;;;20.33;44.11
5522;BME280;2783;48.730;8.006;2023-04-27T09:42:06;100269.84;;;20.53;44.09
5522;BME280;2783;48.730;8.006;2023-04-27T09:44:32;100271.78;;;20.51;42.48
5522;BME280;2783;48.730;8.006;2023-04-27T09:46:58;100272.38;;;20.81;43.85
5522;BME280;2783;48.730;8.006;2023-04-27T09:49:25;100270.56;;;21.56;43.17
5522;BME280;2783;48.730;8.006;2023-04-27T09:51:51;100265.75;;;21.72;42.21
5522;BME280;2783;48.730;8.006;2023-04-27T09:54:18;100258.22;;;22.46;40.46
5522;BME280;2783;48.730;8.006;2023-04-27T09:56:58;100256.59;;;22.67;40.25
5522;BME280;2783;48.730;8.006;2023-04-27T09:59:41;100250.47;;;22.98;40.47
5522;BME280;2783;48.730;8.006;2023-04-27T10:02:11;100246.53;;;23.47;39.60
5522;BME280;2783;48.730;8.006;2023-04-27T10:07:11;100249.25;;;24.11;37.68
5522;BME280;2783;48.730;8.006;2023-04-27T10:09:41;100253.41;;;23.73;36.55
5522;BME280;2783;48.730;8.006;2023-04-27T10:12:13;100243.78;;;23.58;39.74
5522;BME280;2783;48.730;8.006;2023-04-27T10:14:46;100251.88;;;24.02;37.00
5522;BME280;2783;48.730;8.006;2023-04-27T10:17:12;100258.56;;;24.29;36.93
5522;BME280;2783;48.730;8.006;2023-04-27T10:19:37;100253.06;;;24.09;37.04
5522;BME280;2783;48.730;8.006;2023-04-27T10:22:02;100254.22;;;23.95;37.06
5522;BME280;2783;48.730;8.006;2023-04-27T10:27:06;100239.75;;;24.79;36.59
5522;BME280;2783;48.730;8.006;2023-04-27T10:29:50;100238.16;;;25.27;35.71
5522;BME280;2783;48.730;8.006;2023-04-27T10:32:19;100234.91;;;25.42;33.04
5522;BME280;2783;48.730;8.006;2023-04-27T10:34:45;100237.50;;;25.44;33.71
5522;BME280;2783;48.730;8.006;2023-04-27T10:37:12;100242.25;;;25.21;34.43
5522;BME280;2783;48.730;8.006;2023-04-27T10:39:42;100247.16;;;25.27;37.38
5522;BME280;2783;48.730;8.006;2023-04-27T10:42:07;100239.22;;;24.85;34.33
5522;BME280;2783;48.730;8.006;2023-04-27T10:44:33;100245.53;;;24.85;35.58
5522;BME280;2783;48.730;8.006;2023-04-27T10:47:10;100241.97;;;25.24;33.66
5522;BME280;2783;48.730;8.006;2023-04-27T10:49:36;100232.91;;;25.35;34.47
5522;BME280;2783;48.730;8.006;2023-04-27T10:52:02;100232.56;;;25.58;33.04
5522;BME280;2783;48.730;8.006;2023-04-27T10:54:29;100228.09;;;25.57;33.71
5522;BME280;2783;48.730;8.006;2023-04-27T10:57:04;100227.25;;;24.97;30.87
5522;BME280;2783;48.730;8.006;2023-04-27T10:59:30;100225.53;;;24.34;32.60
5522;BME280;2783;48.730;8.006;2023-04-27T11:01:56;100234.03;;;24.61;32.30
5522;BME280;2783;48.730;8.006;2023-04-27T11:04:21;100229.19;;;24.85;32.83
5522;BME280;2783;48.730;8.006;2023-04-27T11:06:46;100231.50;;;24.90;31.87
5522;BME280;2783;48.730;8.006;2023-04-27T11:09:12;100227.19;;;24.46;33.84
5522;BME280;2783;48.730;8.006;2023-04-27T11:11:42;100234.53;;;24.55;34.74
5522;BME280;2783;48.730;8.006;2023-04-27T11:14:07;100226.78;;;24.92;32.76
5522;BME280;2783;48.730;8.006;2023-04-27T11:16:32;100223.28;;;24.80;34.16
5522;BME280;2783;48.730;8.006;2023-04-27T11:19:03;100225.78;;;24.51;33.72
5522;BME280;2783;48.730;8.006;2023-04-27T11:21:28;100222.38;;;24.70;34.32
5522;BME280;2783;48.730;8.006;2023-04-27T11:23:53;100205.84;;;25.22;36.01
5522;BME280;2783;48.730;8.006;2023-04-27T11:26:21;100210.78;;;25.28;35.87
5522;BME280;2783;48.730;8.006;2023-04-27T11:28:56;100211.28;;;25.13;34.64
5522;BME280;2783;48.730;8.006;2023-04-27T11:31:22;100195.97;;;25.51;33.44
5522;BME280;2783;48.730;8.006;2023-04-27T11:33:48;100199.28;;;25.55;35.78
5522;BME280;2783;48.730;8.006;2023-04-27T11:36:17;100197.38;;;25.55;36.14
5522;BME280;2783;48.730;8.006;2023-04-27T11:38:43;100189.56;;;25.90;32.92
5522;BME280;2783;48.730;8.006;2023-04-27T11:41:08;100193.75;;;26.14;34.92
5522;BME280;2783;48.730;8.006;2023-04-27T11:43:33;100187.88;;;26.93;35.00
5522;BME280;2783;48.730;8.006;2023-04-27T11:46:02;100187.56;;;26.96;32.72
5522;BME280;2783;48.730;8.006;2023-04-27T11:48:28;100194.13;;;27.12;33.23
5522;BME280;2783;48.730;8.006;2023-04-27T11:50:55;100180.25;;;27.23;32.15
5522;BME280;2783;48.730;8.006;2023-04-27T11:53:29;100190.91;;;27.81;34.85
5522;BME280;2783;48.730;8.006;2023-04-27T11:55:55;100180.66;;;28.18;30.87
5522;BME280;2783;48.730;8.006;2023-04-27T11:58:20;100180.88;;;28.42;32.26
5522;BME280;2783;48.730;8.006;2023-04-27T12:00:46;100179.97;;;28.16;31.67
5522;BME280;2783;48.730;8.006;2023-04-27T12:03:11;100180.81;;;28.52;33.30
5522;BME280;2783;48.730;8.006;2023-04-27T12:05:46;100175.69;;;28.13;32.12
5522;BME280;2783;48.730;8.006;2023-04-27T12:08:11;100176.44;;;27.88;31.56
5522;BME280;2783;48.730;8.006;2023-04-27T12:10:36;100164.59;;;26.89;32.28
5522;BME280;2783;48.730;8.006;2023-04-27T12:13:02;100165.34;;;27.18;33.19
5522;BME280;2783;48.730;8.006;2023-04-27T12:15:27;100167.91;;;27.74;33.57
5522;BME280;2783;48.730;8.006;2023-04-27T12:17:52;100156.66;;;27.32;32.41
5522;BME280;2783;48.730;8.006;2023-04-27T12:20:17;100161.81;;;27.62;32.30
5522;BME280;2783;48.730;8.006;2023-04-27T12:22:43;100164.19;;;28.10;31.75
5522;BME280;2783;48.730;8.006;2023-04-27T12:25:08;100153.97;;;28.37;31.08
5522;BME280;2783;48.730;8.006;2023-04-27T12:27:33;100158.88;;;28.08;31.03
5522;BME280;2783;48.730;8.006;2023-04-27T12:29:59;100160.25;;;28.12;31.79
5522;BME280;2783;48.730;8.006;2023-04-27T12:32:24;100161.44;;;28.27;31.86
5522;BME280;2783;48.730;8.006;2023-04-27T12:34:49;100167.66;;;27.67;31.83
5522;BME280;2783;48.730;8.006;2023-04-27T12:37:15;100159.56;;;26.94;35.56
5522;BME280;2783;48.730;8.006;2023-04-27T12:39:40;100156.13;;;27.19;34.55
5522;BME280;2783;48.730;8.006;2023-04-27T12:42:05;100160.84;;;27.54;33.50
5522;BME280;2783;48.730;8.006;2023-04-27T12:44:31;100159.03;;;28.07;35.67
5522;BME280;2783;48.730;8.006;2023-04-27T12:46:56;100167.41;;;28.05;32.70
5522;BME280;2783;48.730;8.006;2023-04-27T12:49:21;100162.13;;;27.77;33.00
5522;BME280;2783;48.730;8.006;2023-04-27T12:51:47;100152.53;;;28.08;32.07
5522;BME280;2783;48.730;8.006;2023-04-27T12:54:15;100156.47;;;28.05;31.38
5522;BME280;2783;48.730;8.006;2023-04-27T12:56:40;100155.88;;;28.19;32.59
5522;BME280;2783;48.730;8.006;2023-04-27T12:59:06;100150.41;;;28.19;30.48
5522;BME280;2783;48.730;8.006;2023-04-27T13:01:31;100149.16;;;28.31;30.25
5522;BME280;2783;48.730;8.006;2023-04-27T13:03:58;100149.09;;;27.71;30.13
5522;BME280;2783;48.730;8.006;2023-04-27T13:06:23;100146.81;;;27.84;31.80
5522;BME280;2783;48.730;8.006;2023-04-27T13:08:49;100144.03;;;27.76;31.16
5522;BME280;2783;48.730;8.006;2023-04-27T13:11:15;100140.75;;;27.90;30.20